Airport ID:KEDC
Update Time (UTC):16 JUL 20 14:44
Wind Speed (Knots):4
Wind Direction (Magnetic):160
Temperature (°C):28
Dew Point (°C):23
Humidity (%):71
Altimeter (inHg):30.09
Density Altitude (Feet):2100
Visibility (Miles):7
Clouds (Hundreds of feet):FEW023
Present Weather:NO PRECIPITATION
METAR:METAR KEDC 161440Z AUTO 21005KT 7SM FEW023 28/23 A3009 RMK AO2

The data displayed is for advisory purposes only and is not to be used for flight planning or operations.